Terminal Aerodrome Forecast
Issued by NWS

Home | Current Version | Previous Version | Graphics & Text | Print | Product List | Glossary On
Versions: 1 2 3 4 5 6 7 8 9 10 11 12 13 14 15 16 17 18
657
FTUS43 KTOP 191740
TAFFOE
TAF
KFOE 191740Z 1918/2018 15008KT P6SM SKC
     FM200900 16004KT P6SM VCTS SCT050CB BKN100
     FM201300 16005KT P6SM SCT100=

USA.gov is the U.S. government's official web portal to all federal, state and local government web resources and services.